Moss, TN (38575)

2:30 PM CDT on May 27, 2017 (GMT -0500)
On the Square | | Change Station
Active Advisory: Severe Thunderstorm Watch

Elev 574 ft 36.55 °N, 85.50 °W | Updated 1 second ago

Mostly Cloudy
Mostly Cloudy
84.0 °F
Feels Like 90 °F
N
3.0
Wind Variable Wind from WSW
Gusts 7.0 mph

Today
High -- | Low -- °F
--% Chance of Precip.
Yesterday
High -- | Low -- °F
Precip. -- in
Pressure 29.92 in
Visibility 10.0 miles
Clouds Scattered Clouds 2400 ft
Scattered Clouds 4200 ft
Scattered Clouds 5000 ft
Heat Index 90 °F
Dew Point 73 °F
Humidity 70%
Rainfall 0.00 in
Snow Depth Not available.
5:27 AM 7:52 PM
Waxing Crescent, 6% visible
METAR KGLW 271850Z AUTO 23008KT 10SM SCT024 SCT042 SCT050 28/22 A2992 RMK AO2 T02760215
Pressure 29.92 in
Visibility 10.0 miles
Clouds Scattered Clouds 2400 ft
Scattered Clouds 4200 ft
Scattered Clouds 5000 ft
Heat Index 90 °F
Dew Point 73 °F
Humidity 70%
Rainfall 0.00 in
Snow Depth Not available.
5:27 AM 7:52 PM
Waxing Crescent, 6% visible
METAR KGLW 271850Z AUTO 23008KT 10SM SCT024 SCT042 SCT050 28/22 A2992 RMK AO2 T02760215

Get Your Daily Forecast Email!

Thanks for signing up!

Be on the lookout for a verification email in your inbox.

You'll start receiving severe weather alerts in your inbox..

×

10-Day Weather Forecast

Almanac

Astronomy

May. 27, 2017 Rise Set
Actual Time
Civil Twilight
Nautical Twilight
Astronomical Twilight
Moon
Length of Visible Light
Length of Day
Tomorrow will be .
, % of the Moon is Illuminated

Today's Extremes

State Highs State Lows

Community

WunderPhotos

Category 6

Welcome to Category 6. This is the collective home for Weather Underground's featured writeups by Dr. Jeff Masters (right), Bob Henson (left), Chris Burt, and other regular contributors.

Nearby

Air Quality

  Air Quality AQ Index Pollutant
Not available.

Snow Depth

Station Depth Elevation

Earthquake Activity

City Distance Mag. Time & Date
Minimum magnitude displayed is 2.5.

Coastal Water Temperatures

Place Temperature

Stations

Nearby Weather Stations

Station Location Temp. Windchill Dew Point Humidity Wind Precip. Elev Updated Type
                   

Watches & Warnings

Severe Thunderstorm Watch
Issued: 2:24 PM CDT May. 27, 2017 – National Weather Service

Severe Thunderstorm Watch 276 remains in effect until 900 PM CDT

TN
. Tennessee counties included are

Benton Carroll Cheatham
Clay Davidson Dickson
Dyer Fentress Gibson
Henry Houston Humphreys
Jackson Lake Macon
Montgomery Obion Overton
Pickett Putnam Robertson
Smith Stewart Sumner
Trousdale Weakley Wilson